Terminal Aerodrome Forecast
Issued by NWS Mt. Holly, NJ

Home | Current Version | Previous Version | Text Only | Print | Product List | Glossary On
Versions: 1 2 3 4 5 6 7 8 9 10 11 12 13
000
FTUS41 KPHI 052104 AAA
TAFRDG
TAF AMD
KRDG 052104Z 0521/0618 28006KT P6SM SCT045 BKN100
     FM052300 VRB03KT P6SM SCT035 BKN070
      TEMPO 0523/0603 -SHRA OVC035
     FM060600 VRB03KT P6SM SCT025 OVC045
     FM061000 04006KT 6SM -SHRA BR SCT020 OVC045=

USA.gov is the U.S. government's official web portal to all federal, state and local government web resources and services.